Time;durP1;ratioP1;P1;durP2;ratioP2;P2;SDS_P1;SDS_P2;PMS_P1;PMS_P2;Temp;Humidity;BMP_temperature;BMP_pressure;BME280_temperature;BME280_humidity;BME280_pressure;Samples;Min_cycle;Max_cycle;Signal;HPM_P1;HPM_P2
2021/05/05 00:00:13;;;;;;;2.58;0.95;;;;;;;;;;5094211;28;20093;-75
2021/05/05 00:02:41;;;;;;;2.25;0.98;;;;;;;;;;5093774;28;20032;-75
2021/05/05 00:05:07;;;;;;;2.33;0.93;;;;;;;;;;5094964;28;20040;-74
2021/05/05 00:07:33;;;;;;;2.35;1.00;;;;;;;;;;5095200;28;20036;-75
2021/05/05 00:09:59;;;;;;;5.13;1.50;;;;;;;;;;5094915;28;20101;-74
2021/05/05 00:12:24;;;;;;;4.35;1.20;;;;;;;;;;5093588;28;20036;-74
2021/05/05 00:14:50;;;;;;;2.47;1.08;;;;;;;;;;5095227;28;20036;-74
2021/05/05 00:17:15;;;;;;;4.28;1.55;;;;;;;;;;5094503;28;20043;-74
2021/05/05 00:19:40;;;;;;;2.08;1.27;;;;;;;;;;5093418;28;20422;-74
2021/05/05 00:22:07;;;;;;;2.88;1.30;;;;;;;;;;5094641;28;20057;-74
2021/05/05 00:24:33;;;;;;;2.70;1.10;;;;;;;;;;5093436;28;20043;-74
2021/05/05 00:26:58;;;;;;;1.60;0.93;;;;;;;;;;5094640;28;20047;-74
2021/05/05 00:29:23;;;;;;;1.77;1.00;;;;;;;;;;5093516;28;20051;-74
2021/05/05 00:31:49;;;;;;;3.22;1.02;;;;;;;;;;5093264;28;20118;-74
2021/05/05 00:34:14;;;;;;;3.35;1.05;;;;;;;;;;5094635;28;20048;-74
2021/05/05 00:36:39;;;;;;;2.30;0.95;;;;;;;;;;5094544;28;20069;-74
2021/05/05 00:39:05;;;;;;;3.13;1.38;;;;;;;;;;5094515;28;20485;-74
2021/05/05 00:41:31;;;;;;;3.03;1.30;;;;;;;;;;5093135;28;20509;-75
2021/05/05 00:43:56;;;;;;;4.63;1.30;;;;;;;;;;5094292;28;20504;-74
2021/05/05 00:46:21;;;;;;;5.32;1.27;;;;;;;;;;5092993;28;20119;-74
2021/05/05 00:48:47;;;;;;;4.78;1.35;;;;;;;;;;5094375;28;20111;-74
2021/05/05 00:51:12;;;;;;;4.70;1.30;;;;;;;;;;5094276;28;20032;-75
2021/05/05 00:53:40;;;;;;;5.57;1.50;;;;;;;;;;5094096;28;20058;-74
2021/05/05 00:56:06;;;;;;;5.28;1.40;;;;;;;;;;5094074;28;20032;-74
2021/05/05 00:58:32;;;;;;;4.80;1.45;;;;;;;;;;5094092;28;20534;-74
2021/05/05 01:00:58;;;;;;;4.20;1.50;;;;;;;;;;5092635;28;20032;-74
2021/05/05 01:03:23;;;;;;;5.10;1.30;;;;;;;;;;5092742;28;20367;-74
2021/05/05 01:05:50;;;;;;;2.72;1.30;;;;;;;;;;5092657;28;20028;-74
2021/05/05 01:08:19;;;;;;;3.15;1.48;;;;;;;;;;5092725;28;20036;-74
2021/05/05 01:10:45;;;;;;;4.50;1.50;;;;;;;;;;5093502;28;20059;-75
2021/05/05 01:13:12;;;;;;;4.13;1.50;;;;;;;;;;5092853;28;20059;-74
2021/05/05 01:15:38;;;;;;;4.13;1.75;;;;;;;;;;5094027;28;20032;-74
2021/05/05 01:18:03;;;;;;;3.30;1.33;;;;;;;;;;5093388;28;20362;-75
2021/05/05 01:20:30;;;;;;;3.80;1.25;;;;;;;;;;5092610;28;20114;-75
2021/05/05 01:22:55;;;;;;;5.10;2.10;;;;;;;;;;5093476;28;20032;-75
2021/05/05 01:25:22;;;;;;;3.20;1.30;;;;;;;;;;5074395;28;20118;-75
2021/05/05 01:27:47;;;;;;;2.45;1.23;;;;;;;;;;5075234;28;20115;-74
2021/05/05 01:30:16;;;;;;;2.72;1.52;;;;;;;;;;5093570;28;20382;-74
2021/05/05 01:32:42;;;;;;;4.40;1.48;;;;;;;;;;5092450;28;20409;-74
2021/05/05 01:35:11;;;;;;;5.75;1.52;;;;;;;;;;5092386;28;20057;-74
2021/05/05 01:37:40;;;;;;;6.25;1.38;;;;;;;;;;5093244;28;20040;-74
2021/05/05 01:40:11;;;;;;;4.15;1.42;;;;;;;;;;5092218;28;20028;-74
2021/05/05 01:42:37;;;;;;;1.88;1.40;;;;;;;;;;5091454;28;20089;-74
2021/05/05 01:45:04;;;;;;;3.30;1.35;;;;;;;;;;5093520;28;20028;-74
2021/05/05 01:47:29;;;;;;;3.70;1.33;;;;;;;;;;5093083;28;20032;-74
2021/05/05 01:49:55;;;;;;;4.38;1.40;;;;;;;;;;5093238;28;20032;-74
2021/05/05 01:52:20;;;;;;;2.17;1.27;;;;;;;;;;5092038;28;20031;-74
2021/05/05 01:54:47;;;;;;;3.53;1.63;;;;;;;;;;5093163;28;20084;-74
2021/05/05 01:57:24;;;;;;;3.03;1.30;;;;;;;;;;5091853;28;20032;-74
2021/05/05 01:59:54;;;;;;;2.75;1.20;;;;;;;;;;5075327;28;20028;-74
2021/05/05 02:02:19;;;;;;;2.88;1.30;;;;;;;;;;5092853;28;20031;-74
2021/05/05 02:04:45;;;;;;;8.27;2.25;;;;;;;;;;5092923;28;20477;-74
2021/05/05 02:07:18;;;;;;;5.45;2.88;;;;;;;;;;5093093;28;20085;-74
2021/05/05 02:09:49;;;;;;;3.50;1.67;;;;;;;;;;5092038;28;20020;-74
2021/05/05 02:12:15;;;;;;;3.90;1.58;;;;;;;;;;5091883;28;20043;-74
2021/05/05 02:14:42;;;;;;;4.18;1.40;;;;;;;;;;5092900;28;20036;-75
2021/05/05 02:17:08;;;;;;;3.75;1.38;;;;;;;;;;5091877;28;20042;-75
2021/05/05 02:19:33;;;;;;;2.20;1.02;;;;;;;;;;5093046;28;20036;-74
2021/05/05 02:22:02;;;;;;;1.58;1.13;;;;;;;;;;5092890;28;20119;-74
2021/05/05 02:24:30;;;;;;;4.57;1.50;;;;;;;;;;5093094;28;20031;-74
2021/05/05 02:26:57;;;;;;;6.15;1.77;;;;;;;;;;5091565;28;20077;-74
2021/05/05 02:29:23;;;;;;;5.50;1.85;;;;;;;;;;5093002;28;20107;-74
2021/05/05 02:32:22;;;;;;;4.78;1.60;;;;;;;;;;5088080;28;20044;-74
2021/05/05 02:34:48;;;;;;;5.53;1.60;;;;;;;;;;5091667;28;20036;-74
2021/05/05 02:37:14;;;;;;;3.25;1.52;;;;;;;;;;5091705;28;20036;-74
2021/05/05 02:39:42;;;;;;;2.17;1.23;;;;;;;;;;5093016;28;20035;-74
2021/05/05 02:42:10;;;;;;;4.53;1.20;;;;;;;;;;5092347;28;20052;-74
2021/05/05 02:44:36;;;;;;;2.85;1.45;;;;;;;;;;5092652;28;20085;-74
2021/05/05 02:47:02;;;;;;;3.35;1.48;;;;;;;;;;5092790;28;20548;-74
2021/05/05 02:49:29;;;;;;;5.53;1.70;;;;;;;;;;5091690;28;20024;-74
2021/05/05 02:51:55;;;;;;;3.90;1.50;;;;;;;;;;5092705;28;20036;-74
2021/05/05 02:54:21;;;;;;;3.00;1.95;;;;;;;;;;5091719;28;20090;-75
2021/05/05 02:56:47;;;;;;;2.88;1.48;;;;;;;;;;5092595;28;20035;-75
2021/05/05 02:59:13;;;;;;;3.90;1.50;;;;;;;;;;5091248;28;20036;-74
2021/05/05 03:01:39;;;;;;;2.65;1.58;;;;;;;;;;5092827;28;20401;-74
2021/05/05 03:04:04;;;;;;;3.33;1.50;;;;;;;;;;5092459;28;20047;-74
2021/05/05 03:06:30;;;;;;;7.68;1.67;;;;;;;;;;5092505;28;20142;-74
2021/05/05 03:08:57;;;;;;;2.80;1.38;;;;;;;;;;5091389;28;20043;-76
2021/05/05 03:11:23;;;;;;;4.95;1.55;;;;;;;;;;5092351;28;20039;-74
2021/05/05 03:13:48;;;;;;;6.80;1.58;;;;;;;;;;5092910;28;20036;-75
2021/05/05 03:16:14;;;;;;;3.05;1.33;;;;;;;;;;5096051;28;20074;-75
2021/05/05 03:18:39;;;;;;;2.85;1.50;;;;;;;;;;5094823;28;20039;-75
2021/05/05 03:21:04;;;;;;;1.75;1.33;;;;;;;;;;5096244;28;20044;-74
2021/05/05 03:23:30;;;;;;;3.42;1.50;;;;;;;;;;5096081;28;20055;-74
2021/05/05 03:25:56;;;;;;;7.82;2.15;;;;;;;;;;5094865;28;20055;-74
2021/05/05 03:28:21;;;;;;;2.85;1.60;;;;;;;;;;5094298;28;20036;-75
2021/05/05 03:30:47;;;;;;;3.60;1.60;;;;;;;;;;5095900;28;20032;-76
2021/05/05 03:33:12;;;;;;;4.78;1.80;;;;;;;;;;5096100;28;20060;-77
2021/05/05 03:35:37;;;;;;;3.20;1.83;;;;;;;;;;5095687;28;20032;-76
2021/05/05 03:38:03;;;;;;;5.45;1.58;;;;;;;;;;5095575;28;20078;-74
2021/05/05 03:40:29;;;;;;;7.30;1.88;;;;;;;;;;5095302;28;20036;-74
2021/05/05 03:42:55;;;;;;;5.30;1.92;;;;;;;;;;5095095;28;20036;-74
2021/05/05 03:45:21;;;;;;;3.97;1.70;;;;;;;;;;5094212;28;20078;-74
2021/05/05 03:47:47;;;;;;;2.92;1.85;;;;;;;;;;5095466;28;20420;-75
2021/05/05 03:50:12;;;;;;;4.20;2.10;;;;;;;;;;5094397;28;20063;-73
2021/05/05 03:52:38;;;;;;;6.07;2.20;;;;;;;;;;5095256;28;20105;-73
2021/05/05 03:55:06;;;;;;;6.50;1.70;;;;;;;;;;5094074;28;20038;-73
2021/05/05 03:57:31;;;;;;;4.05;1.85;;;;;;;;;;5095273;28;20416;-73
2021/05/05 03:59:57;;;;;;;5.82;2.00;;;;;;;;;;5094979;28;20040;-73
2021/05/05 04:02:23;;;;;;;6.13;1.88;;;;;;;;;;5094017;28;20032;-73
2021/05/05 04:04:48;;;;;;;3.67;1.70;;;;;;;;;;5095415;28;20534;-73
2021/05/05 04:07:14;;;;;;;3.03;1.90;;;;;;;;;;5095382;28;20382;-73
2021/05/05 04:09:39;;;;;;;3.42;1.83;;;;;;;;;;5094878;28;20035;-73
2021/05/05 04:12:06;;;;;;;6.15;2.15;;;;;;;;;;5093531;28;20032;-73
2021/05/05 04:14:32;;;;;;;5.00;1.60;;;;;;;;;;5095012;28;20036;-73
2021/05/05 04:16:57;;;;;;;5.13;1.70;;;;;;;;;;5095037;28;20470;-73
2021/05/05 04:19:23;;;;;;;6.43;1.95;;;;;;;;;;5094910;28;20469;-73
2021/05/05 04:21:49;;;;;;;3.83;1.52;;;;;;;;;;5094963;28;20036;-73
2021/05/05 04:24:15;;;;;;;7.00;1.80;;;;;;;;;;5094452;28;20036;-73
2021/05/05 04:26:40;;;;;;;2.33;1.40;;;;;;;;;;5094669;28;20042;-73
2021/05/05 04:29:06;;;;;;;3.42;1.50;;;;;;;;;;5094548;28;20064;-73
2021/05/05 04:31:31;;;;;;;3.35;1.55;;;;;;;;;;5094811;28;20522;-73
2021/05/05 04:33:57;;;;;;;3.25;1.52;;;;;;;;;;5094860;28;20028;-74
2021/05/05 04:36:22;;;;;;;4.10;1.70;;;;;;;;;;5094592;28;20405;-73
2021/05/05 04:38:48;;;;;;;2.50;1.58;;;;;;;;;;5093115;28;20036;-73
2021/05/05 04:41:13;;;;;;;3.35;2.03;;;;;;;;;;5093831;28;20410;-73
2021/05/05 04:43:39;;;;;;;4.75;2.05;;;;;;;;;;5094217;28;20032;-73
2021/05/05 04:46:04;;;;;;;5.20;2.33;;;;;;;;;;5094608;28;20042;-73
2021/05/05 04:48:30;;;;;;;4.80;1.70;;;;;;;;;;5092946;28;20040;-73
2021/05/05 04:50:56;;;;;;;2.70;1.55;;;;;;;;;;5094469;28;20055;-73
2021/05/05 04:53:23;;;;;;;2.67;1.70;;;;;;;;;;5094276;28;20031;-73
2021/05/05 04:55:49;;;;;;;5.15;1.75;;;;;;;;;;5092930;28;20504;-73
2021/05/05 04:58:14;;;;;;;2.42;1.60;;;;;;;;;;5094284;28;20097;-73
2021/05/05 05:00:40;;;;;;;8.38;1.88;;;;;;;;;;5094300;28;20031;-73
2021/05/05 05:03:05;;;;;;;5.25;1.90;;;;;;;;;;5094310;28;20527;-73
2021/05/05 05:05:30;;;;;;;9.18;3.20;;;;;;;;;;5094245;28;20121;-73
2021/05/05 05:07:56;;;;;;;2.55;2.08;;;;;;;;;;5092350;28;20047;-73
2021/05/05 05:10:21;;;;;;;2.72;2.05;;;;;;;;;;5092653;28;20043;-73
2021/05/05 05:12:47;;;;;;;4.10;2.20;;;;;;;;;;5092906;28;20509;-74
2021/05/05 05:15:13;;;;;;;6.70;2.30;;;;;;;;;;5092833;28;20435;-74
2021/05/05 05:17:39;;;;;;;3.95;2.10;;;;;;;;;;5093932;28;20043;-73
2021/05/05 05:20:07;;;;;;;4.50;2.33;;;;;;;;;;5093769;28;20036;-73
2021/05/05 05:22:34;;;;;;;3.55;2.25;;;;;;;;;;5093473;28;20035;-73
2021/05/05 05:25:03;;;;;;;4.72;2.28;;;;;;;;;;5093859;28;20032;-73
2021/05/05 05:27:29;;;;;;;4.38;2.10;;;;;;;;;;5093755;28;20036;-74
2021/05/05 05:29:54;;;;;;;4.72;2.53;;;;;;;;;;5093900;28;20028;-73
2021/05/05 05:32:20;;;;;;;2.80;2.05;;;;;;;;;;5093720;28;20039;-73
2021/05/05 05:34:45;;;;;;;3.47;1.98;;;;;;;;;;5093609;28;20032;-73
2021/05/05 05:37:11;;;;;;;4.75;2.38;;;;;;;;;;5092360;28;20416;-73
2021/05/05 05:39:36;;;;;;;2.25;1.80;;;;;;;;;;5092037;28;20032;-73
2021/05/05 05:42:02;;;;;;;4.60;2.15;;;;;;;;;;5093369;28;20124;-73
2021/05/05 05:44:27;;;;;;;3.35;1.65;;;;;;;;;;5093308;28;20032;-73
2021/05/05 05:46:53;;;;;;;6.20;1.75;;;;;;;;;;5093363;28;20036;-73
2021/05/05 05:49:18;;;;;;;5.38;1.70;;;;;;;;;;5093163;28;20028;-73
2021/05/05 05:51:43;;;;;;;2.63;1.55;;;;;;;;;;5093231;28;20036;-74
2021/05/05 05:54:09;;;;;;;2.17;1.60;;;;;;;;;;5092716;28;20035;-74
2021/05/05 05:56:34;;;;;;;3.33;1.40;;;;;;;;;;5092938;28;20111;-74
2021/05/05 05:59:00;;;;;;;3.13;1.45;;;;;;;;;;5092557;28;20043;-74
2021/05/05 06:01:25;;;;;;;2.08;1.20;;;;;;;;;;5093493;28;20039;-74
2021/05/05 06:03:51;;;;;;;3.65;1.33;;;;;;;;;;5093429;28;20145;-74
2021/05/05 06:06:16;;;;;;;1.95;1.10;;;;;;;;;;5093262;28;20043;-74
2021/05/05 06:08:42;;;;;;;1.88;1.10;;;;;;;;;;5093147;28;20020;-74
2021/05/05 06:11:07;;;;;;;1.98;1.30;;;;;;;;;;5091373;28;20481;-74
2021/05/05 06:13:33;;;;;;;2.47;1.52;;;;;;;;;;5093095;28;20028;-75
2021/05/05 06:15:59;;;;;;;2.50;1.58;;;;;;;;;;5093170;28;20114;-75
2021/05/05 06:18:25;;;;;;;2.33;1.20;;;;;;;;;;5091758;28;20051;-74
2021/05/05 06:20:51;;;;;;;1.88;1.15;;;;;;;;;;5091667;28;20040;-74
2021/05/05 06:23:16;;;;;;;3.08;1.50;;;;;;;;;;5093079;28;20086;-74
2021/05/05 06:25:41;;;;;;;2.05;1.40;;;;;;;;;;5069050;28;20094;-75
2021/05/05 06:28:07;;;;;;;4.15;1.60;;;;;;;;;;5072834;28;20082;-75
2021/05/05 06:30:32;;;;;;;2.75;1.40;;;;;;;;;;5071688;28;20068;-74
2021/05/05 06:32:58;;;;;;;2.35;1.55;;;;;;;;;;5072888;28;20037;-74
2021/05/05 06:35:23;;;;;;;10.10;1.60;;;;;;;;;;5072734;28;20031;-73
2021/05/05 06:37:49;;;;;;;8.23;1.67;;;;;;;;;;5072296;28;20039;-74
2021/05/05 06:40:15;;;;;;;4.07;1.67;;;;;;;;;;5072628;28;20521;-74
2021/05/05 06:42:41;;;;;;;4.20;1.90;;;;;;;;;;5084776;28;20052;-74
2021/05/05 06:45:07;;;;;;;4.35;1.40;;;;;;;;;;5093102;28;20040;-75
2021/05/05 06:47:33;;;;;;;2.78;1.50;;;;;;;;;;5091881;28;20481;-73
2021/05/05 06:49:59;;;;;;;4.78;1.60;;;;;;;;;;5095426;28;20123;-74
2021/05/05 06:52:24;;;;;;;6.75;1.70;;;;;;;;;;5096252;28;20036;-74
2021/05/05 06:54:50;;;;;;;2.78;1.40;;;;;;;;;;5096769;28;20035;-75
2021/05/05 06:57:15;;;;;;;6.07;1.73;;;;;;;;;;5096434;28;20094;-74
2021/05/05 06:59:41;;;;;;;5.88;1.58;;;;;;;;;;5096506;28;20036;-74
2021/05/05 07:02:06;;;;;;;4.70;1.63;;;;;;;;;;5096474;28;20603;-74
2021/05/05 07:04:32;;;;;;;5.18;1.52;;;;;;;;;;5096384;28;20047;-74
2021/05/05 07:06:57;;;;;;;4.63;1.50;;;;;;;;;;5096170;28;20066;-74
2021/05/05 07:09:23;;;;;;;3.25;1.58;;;;;;;;;;5096261;28;20038;-75
2021/05/05 07:11:48;;;;;;;3.72;1.40;;;;;;;;;;5096055;28;20040;-75
2021/05/05 07:14:14;;;;;;;13.13;1.90;;;;;;;;;;5078144;28;20069;-74
2021/05/05 07:16:39;;;;;;;5.15;1.80;;;;;;;;;;5096614;28;20048;-74
2021/05/05 07:19:04;;;;;;;3.53;1.40;;;;;;;;;;5096143;28;20042;-74
2021/05/05 07:21:31;;;;;;;3.95;1.70;;;;;;;;;;5096007;28;20473;-74
2021/05/05 07:23:57;;;;;;;5.68;1.48;;;;;;;;;;5094986;28;20036;-74
2021/05/05 07:26:23;;;;;;;4.82;1.58;;;;;;;;;;5096035;28;20082;-75
2021/05/05 07:28:49;;;;;;;3.08;1.27;;;;;;;;;;5095348;28;20370;-76
2021/05/05 07:31:14;;;;;;;2.75;1.48;;;;;;;;;;5096459;28;20024;-76
2021/05/05 07:33:40;;;;;;;1.40;1.10;;;;;;;;;;5095920;28;20499;-75
2021/05/05 07:36:16;;;;;;;5.70;1.60;;;;;;;;;;5095887;28;20057;-76
2021/05/05 07:49:30;;;;;;;4.53;1.77;;;;;;;;;;5095234;28;20028;-75
2021/05/05 07:51:55;;;;;;;3.65;1.40;;;;;;;;;;5095486;28;20482;-75
2021/05/05 07:54:22;;;;;;;3.28;1.67;;;;;;;;;;5095706;28;20032;-76
2021/05/05 07:56:48;;;;;;;4.25;1.38;;;;;;;;;;5095063;28;20063;-75
2021/05/05 07:59:14;;;;;;;2.63;1.40;;;;;;;;;;5095867;28;20067;-77
2021/05/05 08:01:40;;;;;;;7.93;1.40;;;;;;;;;;5097045;28;20063;-79
2021/05/05 08:04:06;;;;;;;2.35;1.70;;;;;;;;;;5096438;28;20061;-75
2021/05/05 08:06:31;;;;;;;3.50;1.67;;;;;;;;;;5095721;28;20047;-77
2021/05/05 08:08:57;;;;;;;3.25;1.77;;;;;;;;;;5096678;28;20087;-80
2021/05/05 08:11:24;;;;;;;3.30;1.75;;;;;;;;;;5094202;28;20119;-75
2021/05/05 08:13:49;;;;;;;3.67;1.80;;;;;;;;;;5095882;28;20047;-74
2021/05/05 08:16:16;;;;;;;3.85;1.77;;;;;;;;;;5095164;28;20032;-76
2021/05/05 08:18:42;;;;;;;2.83;1.63;;;;;;;;;;5093384;28;20077;-76
2021/05/05 08:21:08;;;;;;;3.60;1.80;;;;;;;;;;5094770;28;20541;-75
2021/05/05 08:23:37;;;;;;;5.75;1.88;;;;;;;;;;5094519;28;20388;-75
2021/05/05 08:26:04;;;;;;;4.80;1.92;;;;;;;;;;5094896;28;20055;-75
2021/05/05 08:28:30;;;;;;;4.88;2.00;;;;;;;;;;5094481;28;20457;-74
2021/05/05 08:30:56;;;;;;;5.60;1.92;;;;;;;;;;5094940;28;20036;-75
2021/05/05 08:33:21;;;;;;;6.32;1.80;;;;;;;;;;5094439;28;20375;-75
2021/05/05 08:35:46;;;;;;;7.20;2.28;;;;;;;;;;5094911;28;20119;-74
2021/05/05 08:38:12;;;;;;;2.67;1.50;;;;;;;;;;5094510;28;20073;-74
2021/05/05 08:40:38;;;;;;;4.97;1.40;;;;;;;;;;5094392;28;20028;-73
2021/05/05 08:43:03;;;;;;;2.33;1.20;;;;;;;;;;5094576;28;20484;-73
2021/05/05 08:45:31;;;;;;;1.88;1.10;;;;;;;;;;5094553;28;20055;-73
2021/05/05 08:48:03;;;;;;;3.80;1.50;;;;;;;;;;5093734;28;20066;-74
2021/05/05 08:50:31;;;;;;;3.50;1.58;;;;;;;;;;5052577;28;20419;-75
2021/05/05 08:52:57;;;;;;;6.60;1.45;;;;;;;;;;5054254;28;20044;-74
2021/05/05 08:55:25;;;;;;;3.40;1.58;;;;;;;;;;5054123;28;20479;-75
2021/05/05 08:57:51;;;;;;;2.15;1.67;;;;;;;;;;5053893;28;20085;-75
2021/05/05 09:00:22;;;;;;;3.03;1.55;;;;;;;;;;5056142;28;20033;-75
2021/05/05 09:02:48;;;;;;;1.70;1.33;;;;;;;;;;5056009;28;20033;-74
2021/05/05 09:05:15;;;;;;;3.63;1.45;;;;;;;;;;5054184;28;20059;-73
2021/05/05 09:07:41;;;;;;;2.88;1.50;;;;;;;;;;5054282;28;20048;-74
2021/05/05 09:10:19;;;;;;;3.80;1.60;;;;;;;;;;5052964;28;20052;-73
2021/05/05 09:12:46;;;;;;;2.53;1.48;;;;;;;;;;5053440;28;20037;-74
2021/05/05 09:15:19;;;;;;;2.20;1.20;;;;;;;;;;5054321;28;20036;-73
2021/05/05 09:17:48;;;;;;;3.90;1.40;;;;;;;;;;5090154;28;20044;-73
2021/05/05 09:20:17;;;;;;;1.45;1.17;;;;;;;;;;5093963;28;20032;-73
2021/05/05 09:22:44;;;;;;;1.50;1.15;;;;;;;;;;5094067;28;20036;-73
2021/05/05 09:25:15;;;;;;;2.33;1.20;;;;;;;;;;5094209;28;20068;-73
2021/05/05 09:27:41;;;;;;;3.95;1.38;;;;;;;;;;5092482;28;20032;-73
2021/05/05 09:30:18;;;;;;;5.20;1.50;;;;;;;;;;5093568;28;20032;-73
2021/05/05 09:32:52;;;;;;;1.98;1.10;;;;;;;;;;5093461;28;20051;-73
2021/05/05 09:35:19;;;;;;;3.67;1.67;;;;;;;;;;5092492;28;20123;-73
2021/05/05 09:37:55;;;;;;;3.13;1.05;;;;;;;;;;5093619;28;20027;-73
2021/05/05 09:40:20;;;;;;;8.15;1.67;;;;;;;;;;5093627;28;20039;-73
2021/05/05 09:42:46;;;;;;;3.50;1.30;;;;;;;;;;5092055;28;20097;-73
2021/05/05 09:45:12;;;;;;;3.75;1.20;;;;;;;;;;5092169;28;20046;-73
2021/05/05 09:47:58;;;;;;;4.95;1.30;;;;;;;;;;5093433;28;20077;-73
2021/05/05 09:50:42;;;;;;;0.95;0.70;;;;;;;;;;5093472;28;20032;-72
2021/05/05 09:53:24;;;;;;;4.70;1.00;;;;;;;;;;5093198;28;20047;-70
2021/05/05 09:55:52;;;;;;;2.90;1.00;;;;;;;;;;5093318;28;20131;-72
2021/05/05 09:58:28;;;;;;;4.78;1.50;;;;;;;;;;5094462;28;20397;-81
2021/05/05 10:01:06;;;;;;;3.78;1.00;;;;;;;;;;5098143;28;20032;-77
2021/05/05 10:03:40;;;;;;;2.78;1.10;;;;;;;;;;5099944;28;20036;-79
2021/05/05 10:06:40;;;;;;;4.78;1.00;;;;;;;;;;5100753;28;20477;-77
2021/05/05 10:09:10;;;;;;;2.67;1.20;;;;;;;;;;5098082;28;20036;-79
2021/05/05 10:11:41;;;;;;;5.40;1.58;;;;;;;;;;5099222;28;20040;-78
2021/05/05 10:14:07;;;;;;;3.13;1.23;;;;;;;;;;5096256;28;20046;-77
2021/05/05 10:16:36;;;;;;;6.15;1.40;;;;;;;;;;5093470;28;20028;-76
2021/05/05 10:19:06;;;;;;;3.85;1.38;;;;;;;;;;5093463;28;20032;-74
2021/05/05 10:21:34;;;;;;;5.53;1.52;;;;;;;;;;5093992;28;20061;-72
2021/05/05 10:24:00;;;;;;;3.60;1.02;;;;;;;;;;5095635;28;20024;-75
2021/05/05 10:26:27;;;;;;;4.63;1.70;;;;;;;;;;5098264;28;20131;-73
2021/05/05 10:28:54;;;;;;;6.38;1.83;;;;;;;;;;5096959;28;20062;-77
2021/05/05 10:31:23;;;;;;;3.40;1.48;;;;;;;;;;5096193;28;20031;-77
2021/05/05 10:33:52;;;;;;;2.58;1.30;;;;;;;;;;5103542;28;20035;-79
2021/05/05 10:36:37;;;;;;;3.88;1.42;;;;;;;;;;5102456;28;20103;-75
2021/05/05 10:39:18;;;;;;;2.63;1.20;;;;;;;;;;5096876;28;20047;-75
2021/05/05 10:41:59;;;;;;;5.15;1.33;;;;;;;;;;5096478;28;20492;-77
2021/05/05 10:44:52;;;;;;;5.43;2.28;;;;;;;;;;5081489;28;20528;-81
2021/05/05 10:47:21;;;;;;;6.22;1.42;;;;;;;;;;5081907;28;20097;-81
2021/05/05 10:50:12;;;;;;;3.35;1.35;;;;;;;;;;5104477;28;20043;-81
2021/05/05 10:52:37;;;;;;;3.42;1.20;;;;;;;;;;5098076;28;20048;-81
2021/05/05 10:55:05;;;;;;;6.20;2.33;;;;;;;;;;5105460;28;20160;-81
2021/05/05 10:57:30;;;;;;;1.75;1.10;;;;;;;;;;5103188;28;20508;-81
2021/05/05 11:00:11;;;;;;;3.22;1.50;;;;;;;;;;5106421;28;20087;-81
2021/05/05 11:02:40;;;;;;;4.25;1.52;;;;;;;;;;5107446;28;20035;-81
2021/05/05 11:05:12;;;;;;;4.07;1.73;;;;;;;;;;5108156;28;20040;-81
2021/05/05 11:07:46;;;;;;;5.28;1.70;;;;;;;;;;5108119;28;20072;-80
2021/05/05 11:10:35;;;;;;;4.75;1.98;;;;;;;;;;5106631;28;20460;-81
2021/05/05 11:13:25;;;;;;;4.75;2.00;;;;;;;;;;5107663;28;20378;-81
2021/05/05 11:15:50;;;;;;;3.88;1.65;;;;;;;;;;5106293;28;20369;-82
2021/05/05 11:18:28;;;;;;;3.05;1.60;;;;;;;;;;5106371;28;20032;-82
2021/05/05 11:20:59;;;;;;;5.65;1.83;;;;;;;;;;5098378;28;20050;-80
2021/05/05 11:23:34;;;;;;;6.65;1.58;;;;;;;;;;5098886;28;20028;-75
2021/05/05 11:26:22;;;;;;;4.90;1.77;;;;;;;;;;5098223;28;20040;-76
2021/05/05 11:28:58;;;;;;;4.20;2.00;;;;;;;;;;5099026;28;20081;-75
2021/05/05 11:31:43;;;;;;;;;;;;;;;;;;5081584;28;20413;-74
2021/05/05 11:34:09;;;;;;;4.75;1.58;;;;;;;;;;5097669;28;20296;-75
2021/05/05 11:36:35;;;;;;;5.07;1.70;;;;;;;;;;5097895;28;20031;-75
2021/05/05 11:39:01;;;;;;;4.78;1.92;;;;;;;;;;5098533;28;20419;-75
2021/05/05 11:41:29;;;;;;;6.68;1.50;;;;;;;;;;5098647;28;20079;-75
2021/05/05 11:43:54;;;;;;;5.70;1.65;;;;;;;;;;5097615;28;20544;-75
2021/05/05 11:46:21;;;;;;;9.50;1.52;;;;;;;;;;5099069;28;20124;-75
2021/05/05 11:48:47;;;;;;;7.43;1.67;;;;;;;;;;5099625;28;20150;-75
2021/05/05 11:51:39;;;;;;;3.20;1.65;;;;;;;;;;5099452;28;20075;-75
2021/05/05 11:54:11;;;;;;;5.60;2.17;;;;;;;;;;5098047;28;20401;-75
2021/05/05 11:56:38;;;;;;;3.20;1.60;;;;;;;;;;5098435;28;20039;-75
2021/05/05 11:59:03;;;;;;;3.83;1.88;;;;;;;;;;5098472;28;20024;-75
2021/05/05 12:01:29;;;;;;;10.65;1.90;;;;;;;;;;5100773;28;20430;-75
2021/05/05 12:04:12;;;;;;;8.60;1.73;;;;;;;;;;5100825;28;20042;-75
2021/05/05 12:06:52;;;;;;;3.40;1.63;;;;;;;;;;5100190;28;20115;-75
2021/05/05 12:09:23;;;;;;;4.90;1.50;;;;;;;;;;5099974;28;20043;-75
2021/05/05 12:11:48;;;;;;;5.45;1.60;;;;;;;;;;5100304;28;20034;-75
2021/05/05 12:14:27;;;;;;;4.45;1.38;;;;;;;;;;5101229;28;20123;-75
2021/05/05 12:16:56;;;;;;;4.82;2.28;;;;;;;;;;5101343;28;20036;-75
2021/05/05 12:19:21;;;;;;;4.97;1.58;;;;;;;;;;5100936;28;20555;-75
2021/05/05 12:21:47;;;;;;;8.43;1.63;;;;;;;;;;5099626;28;20032;-75
2021/05/05 12:24:12;;;;;;;3.70;1.38;;;;;;;;;;5100086;28;20032;-75
2021/05/05 12:26:38;;;;;;;3.00;1.42;;;;;;;;;;5101185;28;20063;-76
2021/05/05 12:29:06;;;;;;;4.68;1.77;;;;;;;;;;5100884;28;20036;-75
2021/05/05 12:31:34;;;;;;;3.50;1.30;;;;;;;;;;5101203;28;20083;-75
2021/05/05 12:34:02;;;;;;;4.43;1.40;;;;;;;;;;5101330;28;20418;-75
2021/05/05 12:36:29;;;;;;;6.53;2.00;;;;;;;;;;5101270;28;20035;-75
2021/05/05 12:39:01;;;;;;;3.92;1.30;;;;;;;;;;5099049;28;20039;-75
2021/05/05 12:41:43;;;;;;;3.70;1.75;;;;;;;;;;5100406;28;20500;-75
2021/05/05 12:44:09;;;;;;;5.20;2.00;;;;;;;;;;5099636;28;20062;-75
2021/05/05 12:46:54;;;;;;;4.28;1.67;;;;;;;;;;5098953;28;20290;-75
2021/05/05 12:49:27;;;;;;;5.38;1.55;;;;;;;;;;5102222;28;20036;-75
2021/05/05 12:51:53;;;;;;;5.68;1.35;;;;;;;;;;5100315;28;20032;-75
2021/05/05 12:54:20;;;;;;;2.75;1.42;;;;;;;;;;5095515;28;20039;-75
2021/05/05 12:56:49;;;;;;;5.80;1.40;;;;;;;;;;5097591;28;20048;-75
2021/05/05 12:59:30;;;;;;;3.75;1.35;;;;;;;;;;5097352;28;20106;-75
2021/05/05 13:02:06;;;;;;;3.55;1.42;;;;;;;;;;5096866;28;20475;-75
2021/05/05 13:04:42;;;;;;;;;;;;;;;;;;5097115;28;20036;-75
2021/05/05 13:07:28;;;;;;;3.17;1.27;;;;;;;;;;5096841;28;19922;-75
2021/05/05 13:10:18;;;;;;;20.93;2.27;;;;;;;;;;5096753;28;20393;-75
2021/05/05 13:13:07;;;;;;;7.32;1.55;;;;;;;;;;5096673;28;20040;-75
2021/05/05 13:32:43;;;;;;;2.40;1.40;;;;;;;;;;5092931;28;20047;-75
2021/05/05 13:35:22;;;;;;;12.48;1.48;;;;;;;;;;5093219;28;20077;-74
2021/05/05 13:38:06;;;;;;;10.63;1.95;;;;;;;;;;5092414;28;20044;-74
2021/05/05 13:40:40;;;;;;;7.70;1.75;;;;;;;;;;5093321;28;20032;-75
2021/05/05 13:43:30;;;;;;;5.70;1.60;;;;;;;;;;5076960;28;20584;-75
2021/05/05 13:49:06;;;;;;;5.93;1.50;;;;;;;;;;5056874;28;20025;-75
2021/05/05 13:51:31;;;;;;;11.23;1.90;;;;;;;;;;5073857;28;20056;-75
2021/05/05 13:53:57;;;;;;;4.70;2.15;;;;;;;;;;5094824;28;20028;-75
2021/05/05 13:56:25;;;;;;;2.83;1.88;;;;;;;;;;5095597;28;20491;-75
2021/05/05 13:58:52;;;;;;;5.35;1.50;;;;;;;;;;5096783;28;20032;-75
2021/05/05 14:01:17;;;;;;;3.35;1.40;;;;;;;;;;5097735;28;20055;-75
2021/05/05 14:03:44;;;;;;;3.60;1.75;;;;;;;;;;5080487;28;20027;-75
2021/05/05 14:06:10;;;;;;;6.78;1.33;;;;;;;;;;5097852;28;20034;-75
2021/05/05 14:08:35;;;;;;;4.40;1.23;;;;;;;;;;5080580;28;20035;-75
2021/05/05 14:11:01;;;;;;;3.42;0.80;;;;;;;;;;5097264;28;20032;-75
2021/05/05 14:13:26;;;;;;;2.10;0.98;;;;;;;;;;5098539;28;20081;-75
2021/05/05 14:15:53;;;;;;;7.03;0.90;;;;;;;;;;5098072;28;20117;-75
2021/05/05 14:18:20;;;;;;;2.17;0.82;;;;;;;;;;5097015;28;20075;-76
2021/05/05 14:20:46;;;;;;;0.82;0.77;;;;;;;;;;5098075;28;20036;-76
2021/05/05 14:23:12;;;;;;;5.97;0.60;;;;;;;;;;5097161;28;20040;-75
2021/05/05 14:25:37;;;;;;;2.40;0.80;;;;;;;;;;5094695;28;20050;-75
2021/05/05 14:28:04;;;;;;;0.98;0.60;;;;;;;;;;5094549;28;20035;-76
2021/05/05 14:30:31;;;;;;;2.42;0.80;;;;;;;;;;5095635;28;20057;-76
2021/05/05 14:32:59;;;;;;;1.75;0.95;;;;;;;;;;5096006;28;20351;-76
2021/05/05 14:35:26;;;;;;;2.95;0.88;;;;;;;;;;5097872;28;20051;-75
2021/05/05 14:37:53;;;;;;;1.67;0.85;;;;;;;;;;5096461;28;20118;-76
2021/05/05 14:40:19;;;;;;;1.20;0.60;;;;;;;;;;5094744;28;20058;-75
2021/05/05 14:42:51;;;;;;;5.03;1.00;;;;;;;;;;5076172;28;20044;-75
2021/05/05 14:47:56;;;;;;;2.83;1.10;;;;;;;;;;5074978;28;20059;-75
2021/05/05 14:50:23;;;;;;;3.72;1.30;;;;;;;;;;5074623;28;20105;-76
2021/05/05 14:52:49;;;;;;;6.22;1.52;;;;;;;;;;5075764;28;20029;-76
2021/05/05 14:55:14;;;;;;;4.15;1.73;;;;;;;;;;5075339;28;20505;-76
2021/05/05 14:57:43;;;;;;;5.50;1.50;;;;;;;;;;5076129;28;20486;-78
2021/05/05 15:00:10;;;;;;;4.80;1.50;;;;;;;;;;5057699;28;20474;-75
2021/05/05 15:02:37;;;;;;;5.00;1.75;;;;;;;;;;5076234;28;20036;-76
2021/05/05 15:05:04;;;;;;;4.40;1.60;;;;;;;;;;5058032;28;20044;-75
2021/05/05 15:07:31;;;;;;;3.65;1.40;;;;;;;;;;5074806;28;20032;-75
2021/05/05 15:10:01;;;;;;;6.53;1.60;;;;;;;;;;5077016;28;20066;-76
2021/05/05 15:13:01;;;;;;;6.82;1.50;;;;;;;;;;5077466;28;20043;-75
2021/05/05 15:29:18;;;;;;;6.30;1.77;;;;;;;;;;5097461;28;20032;-75
2021/05/05 15:34:43;;;;;;;9.18;1.52;;;;;;;;;;5098250;28;20085;-74
2021/05/05 15:37:15;;;;;;;7.63;2.72;;;;;;;;;;5096190;28;20067;-74
2021/05/05 15:39:46;;;;;;;9.98;1.85;;;;;;;;;;5096974;28;20040;-74